Time;durP1;ratioP1;P1;durP2;ratioP2;P2;SDS_P1;SDS_P2;PMS_P1;PMS_P2;Temp;Humidity;BMP_temperature;BMP_pressure;BME280_temperature;BME280_humidity;BME280_pressure;Samples;Min_cycle;Max_cycle;Signal;HPM_P1;HPM_P2
2022/04/30 00:00:29;;;;;;;1.65;1.55;;;;;;;;;;5030877;28;20018;-58
2022/04/30 00:02:57;;;;;;;1.75;1.55;;;;;;;;;;5030160;28;20109;-58
2022/04/30 00:05:22;;;;;;;3.30;3.00;;;;;;;;;;5030308;28;20048;-58
2022/04/30 00:07:48;;;;;;;3.22;2.08;;;;;;;;;;5029165;28;20497;-58
2022/04/30 00:10:13;;;;;;;1.08;1.08;;;;;;;;;;5030975;28;20018;-59
2022/04/30 00:12:38;;;;;;;8.32;2.47;;;;;;;;;;5030256;28;20025;-58
2022/04/30 00:15:05;;;;;;;17.73;3.90;;;;;;;;;;5031788;28;20053;-58
2022/04/30 00:17:30;;;;;;;4.50;3.60;;;;;;;;;;5033659;28;20505;-58
2022/04/30 00:19:55;;;;;;;2.75;2.53;;;;;;;;;;5033074;28;20053;-57
2022/04/30 00:22:20;;;;;;;7.53;4.20;;;;;;;;;;5033683;28;20026;-58
2022/04/30 00:24:46;;;;;;;11.88;5.03;;;;;;;;;;5033185;28;20021;-58
2022/04/30 00:27:11;;;;;;;2.25;2.05;;;;;;;;;;5033585;28;20022;-58
2022/04/30 00:29:36;;;;;;;5.68;3.55;;;;;;;;;;5031923;28;20071;-58
2022/04/30 00:32:02;;;;;;;7.38;3.42;;;;;;;;;;5032959;28;20032;-59
2022/04/30 00:34:28;;;;;;;1.23;1.15;;;;;;;;;;5033462;28;20087;-59
2022/04/30 00:36:53;;;;;;;13.95;2.13;;;;;;;;;;5032225;28;20033;-60
2022/04/30 00:39:18;;;;;;;3.53;2.17;;;;;;;;;;5015418;28;20022;-60
2022/04/30 00:41:44;;;;;;;7.57;2.80;;;;;;;;;;5035068;28;20549;-59
2022/04/30 00:44:10;;;;;;;1.60;1.50;;;;;;;;;;5036594;28;20013;-59
2022/04/30 00:46:35;;;;;;;3.90;3.05;;;;;;;;;;5032864;28;20094;-60
2022/04/30 00:49:01;;;;;;;3.92;2.88;;;;;;;;;;5033562;28;20044;-57
2022/04/30 00:51:27;;;;;;;7.32;3.85;;;;;;;;;;5033035;28;20025;-60
2022/04/30 00:53:53;;;;;;;6.57;5.95;;;;;;;;;;5034623;28;20386;-60
2022/04/30 00:56:23;;;;;;;2.95;2.42;;;;;;;;;;5033755;28;20013;-58
2022/04/30 00:58:49;;;;;;;0.20;0.20;;;;;;;;;;5033792;28;20129;-59
2022/04/30 01:01:14;;;;;;;2.80;2.20;;;;;;;;;;5033514;28;20569;-59
2022/04/30 01:03:40;;;;;;;2.65;2.45;;;;;;;;;;5034380;28;20022;-58
2022/04/30 01:06:06;;;;;;;2.60;2.40;;;;;;;;;;5034483;28;20618;-58
2022/04/30 01:08:31;;;;;;;3.05;2.40;;;;;;;;;;5033632;28;20029;-60
2022/04/30 01:11:00;;;;;;;3.22;2.78;;;;;;;;;;5032327;28;20032;-60
2022/04/30 01:13:26;;;;;;;10.35;2.70;;;;;;;;;;5032844;28;20028;-60
2022/04/30 01:15:51;;;;;;;5.95;2.63;;;;;;;;;;5033812;28;20033;-58
2022/04/30 01:18:16;;;;;;;2.90;2.75;;;;;;;;;;5033545;28;20075;-59
2022/04/30 01:20:50;;;;;;;4.93;2.13;;;;;;;;;;5033367;28;20378;-58
2022/04/30 01:23:17;;;;;;;1.27;1.17;;;;;;;;;;5033462;28;20022;-57
2022/04/30 01:25:44;;;;;;;3.00;2.72;;;;;;;;;;5032656;28;20032;-57
2022/04/30 01:28:10;;;;;;;0.68;0.68;;;;;;;;;;5033009;28;20574;-60
2022/04/30 01:30:35;;;;;;;3.40;1.35;;;;;;;;;;5033075;28;20079;-58
2022/04/30 01:37:22;;;;;;;0.60;0.60;;;;;;;;;;5033286;28;20385;-59
2022/04/30 01:38:48;;;;;;;0.17;0.17;;;;;;;;;;5033143;28;20052;-58
2022/04/30 01:41:13;;;;;;;0.95;0.95;;;;;;;;;;5033466;28;20120;-59
2022/04/30 01:43:39;;;;;;;1.27;1.27;;;;;;;;;;5016254;28;20022;-59
2022/04/30 01:46:04;;;;;;;0.93;0.55;;;;;;;;;;5033527;28;20410;-57
2022/04/30 01:48:30;;;;;;;3.10;2.83;;;;;;;;;;5032668;28;20029;-59
2022/04/30 01:50:56;;;;;;;1.00;0.98;;;;;;;;;;5033190;28;20532;-58
2022/04/30 01:53:21;;;;;;;1.33;1.23;;;;;;;;;;5031528;28;20032;-59
2022/04/30 01:55:46;;;;;;;0.70;0.35;;;;;;;;;;5033348;28;20033;-59
2022/04/30 01:58:11;;;;;;;0.00;0.00;;;;;;;;;;5033215;28;20143;-59
2022/04/30 02:00:37;;;;;;;0.00;0.00;;;;;;;;;;5030545;28;20021;-60
2022/04/30 02:03:06;;;;;;;0.10;0.10;;;;;;;;;;5032616;28;20031;-60
2022/04/30 02:05:32;;;;;;;2.22;2.13;;;;;;;;;;5031150;28;20494;-60
2022/04/30 02:08:07;;;;;;;0.15;0.15;;;;;;;;;;5032885;28;20037;-60
2022/04/30 02:10:36;;;;;;;0.32;0.08;;;;;;;;;;5031494;28;20033;-58
2022/04/30 02:13:02;;;;;;;0.00;0.00;;;;;;;;;;5030995;28;20021;-57
2022/04/30 02:15:28;;;;;;;0.10;0.10;;;;;;;;;;5031291;28;20025;-58
2022/04/30 02:17:54;;;;;;;0.00;0.00;;;;;;;;;;5030866;28;20080;-58
2022/04/30 02:20:24;;;;;;;0.15;0.15;;;;;;;;;;5029142;28;20095;-57
2022/04/30 02:22:50;;;;;;;0.13;0.13;;;;;;;;;;5030939;28;20057;-57
2022/04/30 02:25:16;;;;;;;0.00;0.00;;;;;;;;;;5030462;28;20378;-57
2022/04/30 02:27:43;;;;;;;0.32;0.32;;;;;;;;;;5030822;28;20030;-60
2022/04/30 02:30:11;;;;;;;1.85;1.10;;;;;;;;;;5031552;28;20029;-60
2022/04/30 02:32:45;;;;;;;0.00;0.00;;;;;;;;;;5031521;28;20091;-60
2022/04/30 02:35:11;;;;;;;1.13;1.13;;;;;;;;;;5032037;28;20025;-58
2022/04/30 02:37:36;;;;;;;2.30;2.20;;;;;;;;;;5030200;28;20389;-58
2022/04/30 02:40:02;;;;;;;0.00;0.00;;;;;;;;;;5030388;28;20415;-60
2022/04/30 02:42:28;;;;;;;0.00;0.00;;;;;;;;;;5029648;28;20546;-59
2022/04/30 02:44:53;;;;;;;0.33;0.33;;;;;;;;;;5030373;28;20076;-58
2022/04/30 02:47:19;;;;;;;0.10;0.10;;;;;;;;;;5032036;28;20780;-57
2022/04/30 02:49:44;;;;;;;0.00;0.00;;;;;;;;;;5031097;28;20053;-57
2022/04/30 02:52:10;;;;;;;0.13;0.13;;;;;;;;;;5030541;28;20136;-58
2022/04/30 02:54:35;;;;;;;0.00;0.00;;;;;;;;;;5030477;28;20036;-58
2022/04/30 02:57:01;;;;;;;1.17;1.17;;;;;;;;;;5031037;28;20080;-57
2022/04/30 03:02:10;;;;;;;0.30;0.30;;;;;;;;;;5031315;28;20068;-58
2022/04/30 03:04:35;;;;;;;1.65;1.55;;;;;;;;;;5030175;28;20057;-58
2022/04/30 03:07:01;;;;;;;0.15;0.15;;;;;;;;;;5030573;28;20524;-58
2022/04/30 03:09:26;;;;;;;1.10;1.05;;;;;;;;;;5029823;28;20021;-57
2022/04/30 03:11:52;;;;;;;0.93;0.93;;;;;;;;;;5031517;28;20108;-57
2022/04/30 03:14:17;;;;;;;0.05;0.05;;;;;;;;;;5030919;28;20021;-57
2022/04/30 03:22:12;;;;;;;0.35;0.35;;;;;;;;;;5032229;28;20433;-58
2022/04/30 03:24:37;;;;;;;0.10;0.10;;;;;;;;;;5030430;28;20473;-57
2022/04/30 03:27:03;;;;;;;0.00;0.00;;;;;;;;;;5030630;28;20029;-58
2022/04/30 03:29:29;;;;;;;0.77;0.57;;;;;;;;;;5028926;28;20017;-58
2022/04/30 03:31:55;;;;;;;0.52;0.52;;;;;;;;;;5030346;28;20569;-58
2022/04/30 03:34:21;;;;;;;0.00;0.00;;;;;;;;;;5029640;28;20040;-59
2022/04/30 03:36:46;;;;;;;0.75;0.75;;;;;;;;;;5030381;28;20393;-61
2022/04/30 03:39:11;;;;;;;2.65;2.40;;;;;;;;;;5031502;28;20033;-61
2022/04/30 03:41:36;;;;;;;5.43;5.22;;;;;;;;;;5031264;28;20018;-61
2022/04/30 03:44:02;;;;;;;0.20;0.20;;;;;;;;;;5030126;28;20017;-60
2022/04/30 03:46:27;;;;;;;0.25;0.25;;;;;;;;;;5021827;28;20080;-60
2022/04/30 03:48:53;;;;;;;0.00;0.00;;;;;;;;;;5020305;28;20061;-60
2022/04/30 03:51:25;;;;;;;0.03;0.03;;;;;;;;;;5023062;28;20023;-60
2022/04/30 03:53:50;;;;;;;0.00;0.00;;;;;;;;;;5019975;28;20080;-60
2022/04/30 03:56:17;;;;;;;0.00;0.00;;;;;;;;;;5014494;28;20458;-60
2022/04/30 03:58:42;;;;;;;0.30;0.13;;;;;;;;;;5017767;28;20060;-61
2022/04/30 04:01:07;;;;;;;0.00;0.00;;;;;;;;;;5016149;28;20033;-61
2022/04/30 04:03:33;;;;;;;0.17;0.17;;;;;;;;;;5013412;28;20451;-59
2022/04/30 04:05:58;;;;;;;0.20;0.20;;;;;;;;;;5021974;28;20021;-57
2022/04/30 04:08:25;;;;;;;0.10;0.10;;;;;;;;;;5019930;28;20033;-58
2022/04/30 04:10:50;;;;;;;1.10;1.00;;;;;;;;;;5019229;28;20026;-58
2022/04/30 04:18:43;;;;;;;4.38;3.60;;;;;;;;;;5018860;28;20037;-56
2022/04/30 04:21:08;;;;;;;0.00;0.00;;;;;;;;;;5018434;28;20030;-54
2022/04/30 04:25:58;;;;;;;0.45;0.45;;;;;;;;;;5020152;28;20097;-58
2022/04/30 04:26:19;;;;;;;0.77;0.43;;;;;;;;;;5018526;28;20037;-54
2022/04/30 04:28:45;;;;;;;0.60;0.60;;;;;;;;;;5016575;28;20010;-56
2022/04/30 04:31:10;;;;;;;0.47;0.47;;;;;;;;;;5019401;28;20029;-58
2022/04/30 04:33:35;;;;;;;1.40;1.40;;;;;;;;;;5015327;28;20121;-57
2022/04/30 04:36:00;;;;;;;0.63;0.35;;;;;;;;;;5020198;28;20469;-58
2022/04/30 04:38:25;;;;;;;1.65;1.55;;;;;;;;;;5019746;28;20520;-58
2022/04/30 04:40:51;;;;;;;2.13;0.47;;;;;;;;;;5014228;28;20029;-58
2022/04/30 04:43:16;;;;;;;3.28;1.90;;;;;;;;;;5017446;28;20025;-58
2022/04/30 04:45:41;;;;;;;0.00;0.00;;;;;;;;;;5020385;28;20079;-59
2022/04/30 04:48:08;;;;;;;0.10;0.10;;;;;;;;;;5028366;28;20097;-59
2022/04/30 04:50:33;;;;;;;1.40;1.30;;;;;;;;;;5028517;28;20424;-59
2022/04/30 04:52:58;;;;;;;0.00;0.00;;;;;;;;;;5026177;28;20194;-58
2022/04/30 04:55:24;;;;;;;0.30;0.30;;;;;;;;;;5029832;28;20027;-59
2022/04/30 04:57:49;;;;;;;0.00;0.00;;;;;;;;;;5022976;28;20044;-59
2022/04/30 05:00:15;;;;;;;0.15;0.15;;;;;;;;;;5030418;28;20024;-59
2022/04/30 05:02:40;;;;;;;0.40;0.30;;;;;;;;;;5029690;28;20036;-59
2022/04/30 05:05:05;;;;;;;3.00;1.75;;;;;;;;;;5027840;28;20034;-58
2022/04/30 05:07:31;;;;;;;4.47;1.90;;;;;;;;;;5026067;28;20509;-58
2022/04/30 05:09:56;;;;;;;3.40;0.70;;;;;;;;;;5031712;28;20052;-58
2022/04/30 05:12:21;;;;;;;0.68;0.68;;;;;;;;;;5029577;28;20029;-58
2022/04/30 05:14:48;;;;;;;0.52;0.52;;;;;;;;;;5024885;28;20017;-59
2022/04/30 05:17:14;;;;;;;0.05;0.05;;;;;;;;;;5031742;28;20021;-57
2022/04/30 05:19:39;;;;;;;3.47;2.90;;;;;;;;;;5029154;28;20109;-58
2022/04/30 05:22:04;;;;;;;0.00;0.00;;;;;;;;;;5024184;28;20095;-59
2022/04/30 05:24:30;;;;;;;1.33;1.30;;;;;;;;;;5023876;28;20019;-57
2022/04/30 05:26:55;;;;;;;1.35;1.35;;;;;;;;;;5024121;28;20029;-58
2022/04/30 05:29:20;;;;;;;0.00;0.00;;;;;;;;;;5028908;28;20776;-57
2022/04/30 05:31:45;;;;;;;0.00;0.00;;;;;;;;;;5025079;28;20036;-59
2022/04/30 05:34:11;;;;;;;1.83;1.73;;;;;;;;;;5030737;28;20021;-59
2022/04/30 05:36:36;;;;;;;0.57;0.57;;;;;;;;;;5030661;28;20075;-60
2022/04/30 05:39:02;;;;;;;0.85;0.80;;;;;;;;;;5032330;28;20494;-59
2022/04/30 05:41:28;;;;;;;0.08;0.08;;;;;;;;;;5034113;28;20022;-58
2022/04/30 05:43:53;;;;;;;3.22;2.30;;;;;;;;;;5034871;28;20391;-59
2022/04/30 05:46:19;;;;;;;5.70;3.58;;;;;;;;;;5026675;28;20053;-57
2022/04/30 05:48:44;;;;;;;0.77;0.68;;;;;;;;;;5001199;28;20431;-60
2022/04/30 05:51:09;;;;;;;1.55;1.45;;;;;;;;;;5013103;28;20026;-59
2022/04/30 05:53:34;;;;;;;0.05;0.05;;;;;;;;;;5017858;28;20040;-58
2022/04/30 05:56:00;;;;;;;0.40;0.40;;;;;;;;;;5023242;28;20104;-59
2022/04/30 05:58:25;;;;;;;0.00;0.00;;;;;;;;;;5016624;28;20097;-58
2022/04/30 06:00:50;;;;;;;0.38;0.38;;;;;;;;;;5023271;28;20036;-59
2022/04/30 06:03:15;;;;;;;0.85;0.65;;;;;;;;;;5013708;28;20344;-57
2022/04/30 06:05:41;;;;;;;0.00;0.00;;;;;;;;;;5018369;28;20383;-58
2022/04/30 06:08:06;;;;;;;0.00;0.00;;;;;;;;;;5015570;28;20056;-58
2022/04/30 06:10:31;;;;;;;0.32;0.32;;;;;;;;;;5014789;28;20068;-58
2022/04/30 06:12:57;;;;;;;2.67;1.95;;;;;;;;;;5017181;28;20046;-59
2022/04/30 06:15:22;;;;;;;3.17;2.95;;;;;;;;;;5019006;28;20029;-59
2022/04/30 06:17:48;;;;;;;1.45;1.15;;;;;;;;;;5017392;28;20539;-57
2022/04/30 06:20:13;;;;;;;2.28;1.45;;;;;;;;;;5013073;28;20063;-58
2022/04/30 06:22:38;;;;;;;0.45;0.45;;;;;;;;;;5018209;28;20026;-59
2022/04/30 06:25:04;;;;;;;1.42;1.33;;;;;;;;;;5013792;28;20050;-59
2022/04/30 06:27:29;;;;;;;6.53;2.47;;;;;;;;;;5003288;28;20403;-61
2022/04/30 06:29:54;;;;;;;0.80;0.80;;;;;;;;;;5021483;28;20030;-61
2022/04/30 06:32:20;;;;;;;0.60;0.60;;;;;;;;;;5015206;28;20030;-60
2022/04/30 06:34:45;;;;;;;0.65;0.65;;;;;;;;;;5010849;28;20021;-62
2022/04/30 06:37:10;;;;;;;1.63;1.52;;;;;;;;;;5000027;28;20168;-59
2022/04/30 06:39:35;;;;;;;0.00;0.00;;;;;;;;;;5017786;28;20215;-60
2022/04/30 06:42:00;;;;;;;0.05;0.05;;;;;;;;;;5020663;28;20069;-59
2022/04/30 06:44:26;;;;;;;4.53;1.63;;;;;;;;;;5017910;28;20033;-60
2022/04/30 06:46:52;;;;;;;0.52;0.52;;;;;;;;;;5027086;28;20053;-64
2022/04/30 06:49:17;;;;;;;0.00;0.00;;;;;;;;;;5030648;28;20467;-63
2022/04/30 06:51:42;;;;;;;1.02;0.63;;;;;;;;;;5026289;28;20018;-60
2022/04/30 06:59:54;;;;;;;0.10;0.10;;;;;;;;;;4981940;28;20031;-58
2022/04/30 07:02:22;;;;;;;0.43;0.43;;;;;;;;;;5020360;28;20128;-56
2022/04/30 07:04:52;;;;;;;0.00;0.00;;;;;;;;;;5030581;28;20519;-57
2022/04/30 07:07:20;;;;;;;0.00;0.00;;;;;;;;;;5031035;28;20040;-56
2022/04/30 07:09:46;;;;;;;0.38;0.15;;;;;;;;;;5012085;28;20028;-56
2022/04/30 07:12:13;;;;;;;0.80;0.80;;;;;;;;;;5030651;28;20033;-57
2022/04/30 07:14:40;;;;;;;1.73;1.60;;;;;;;;;;5029984;28;20430;-57
2022/04/30 07:17:06;;;;;;;1.27;1.27;;;;;;;;;;5030541;28;20570;-57
2022/04/30 07:19:32;;;;;;;2.83;1.33;;;;;;;;;;5030368;28;20017;-60
2022/04/30 07:21:57;;;;;;;0.00;0.00;;;;;;;;;;5031213;28;20021;-59
2022/04/30 07:24:22;;;;;;;0.80;0.80;;;;;;;;;;5012654;28;20408;-58
2022/04/30 07:26:47;;;;;;;0.88;0.88;;;;;;;;;;5030425;28;20414;-59
2022/04/30 07:29:13;;;;;;;0.65;0.65;;;;;;;;;;5030693;28;20061;-59
2022/04/30 07:31:38;;;;;;;0.00;0.00;;;;;;;;;;5030849;28;20096;-59
2022/04/30 07:34:04;;;;;;;0.77;0.52;;;;;;;;;;5030198;28;20382;-59
2022/04/30 07:36:29;;;;;;;0.05;0.05;;;;;;;;;;5029388;28;20049;-58
2022/04/30 07:38:55;;;;;;;1.50;0.35;;;;;;;;;;5030127;28;20029;-58
2022/04/30 07:41:20;;;;;;;0.00;0.00;;;;;;;;;;5029690;28;20372;-58
2022/04/30 07:43:45;;;;;;;0.05;0.05;;;;;;;;;;5027302;28;20044;-59
2022/04/30 07:46:11;;;;;;;3.33;0.90;;;;;;;;;;5021527;28;20112;-58
2022/04/30 07:48:36;;;;;;;2.00;1.85;;;;;;;;;;5017027;28;20430;-57
2022/04/30 07:51:01;;;;;;;0.00;0.00;;;;;;;;;;5020079;28;20506;-58
2022/04/30 07:53:26;;;;;;;0.68;0.68;;;;;;;;;;5018916;28;20101;-59
2022/04/30 07:55:53;;;;;;;2.85;2.30;;;;;;;;;;5015942;28;20033;-58
2022/04/30 07:58:18;;;;;;;0.38;0.38;;;;;;;;;;5015481;28;20018;-60
2022/04/30 08:00:43;;;;;;;1.08;1.08;;;;;;;;;;5016989;28;20026;-59
2022/04/30 08:03:08;;;;;;;0.00;0.00;;;;;;;;;;5016041;28;20029;-60
2022/04/30 08:05:34;;;;;;;0.77;0.77;;;;;;;;;;5021482;28;20088;-58
2022/04/30 08:07:59;;;;;;;0.65;0.65;;;;;;;;;;5017771;28;20022;-58
2022/04/30 08:10:25;;;;;;;1.08;1.05;;;;;;;;;;5017398;28;20018;-59
2022/04/30 08:12:56;;;;;;;0.00;0.00;;;;;;;;;;5019420;28;20026;-62
2022/04/30 08:15:22;;;;;;;0.47;0.47;;;;;;;;;;5015639;28;20430;-60
2022/04/30 08:17:47;;;;;;;0.63;0.63;;;;;;;;;;5012545;28;20834;-59
2022/04/30 08:20:13;;;;;;;1.00;0.98;;;;;;;;;;5020163;28;20032;-58
2022/04/30 08:22:38;;;;;;;0.20;0.20;;;;;;;;;;5011832;28;20022;-60
2022/04/30 08:25:04;;;;;;;0.50;0.50;;;;;;;;;;5015273;28;20108;-59
2022/04/30 08:27:29;;;;;;;2.30;1.98;;;;;;;;;;5019343;28;20021;-59
2022/04/30 08:29:54;;;;;;;3.00;2.38;;;;;;;;;;5015814;28;20101;-59
2022/04/30 08:32:23;;;;;;;0.08;0.00;;;;;;;;;;5019117;28;20056;-60
2022/04/30 08:34:49;;;;;;;1.77;1.20;;;;;;;;;;5022023;28;20025;-59
2022/04/30 08:37:14;;;;;;;0.43;0.43;;;;;;;;;;5018667;28;20045;-56
2022/04/30 08:39:39;;;;;;;2.30;0.95;;;;;;;;;;5018368;28;20471;-58
2022/04/30 08:42:06;;;;;;;1.27;1.20;;;;;;;;;;5023185;28;20030;-57
2022/04/30 08:44:31;;;;;;;1.65;1.60;;;;;;;;;;5016276;28;20402;-58
2022/04/30 08:46:57;;;;;;;1.02;0.55;;;;;;;;;;5019109;28;20069;-57
2022/04/30 08:49:22;;;;;;;1.55;1.00;;;;;;;;;;5017558;28;20026;-58
2022/04/30 08:51:47;;;;;;;0.55;0.55;;;;;;;;;;5018210;28;20102;-59
2022/04/30 08:54:12;;;;;;;0.20;0.20;;;;;;;;;;5018874;28;20025;-58
2022/04/30 08:56:37;;;;;;;0.20;0.20;;;;;;;;;;5014091;28;20031;-60
2022/04/30 08:59:05;;;;;;;2.65;1.80;;;;;;;;;;5012468;28;20048;-58
2022/04/30 09:01:31;;;;;;;1.75;1.65;;;;;;;;;;4997893;28;20021;-60
2022/04/30 09:03:56;;;;;;;0.22;0.22;;;;;;;;;;5015913;28;20116;-60
2022/04/30 09:06:22;;;;;;;0.17;0.15;;;;;;;;;;5021091;28;20144;-60
2022/04/30 09:08:51;;;;;;;1.42;1.33;;;;;;;;;;5018736;28;20044;-60
2022/04/30 09:11:17;;;;;;;1.20;1.17;;;;;;;;;;5025697;28;20070;-60
2022/04/30 09:13:43;;;;;;;0.68;0.68;;;;;;;;;;5016098;28;20053;-61
2022/04/30 09:16:21;;;;;;;1.98;1.88;;;;;;;;;;5021125;28;20022;-58
2022/04/30 09:18:48;;;;;;;1.45;1.25;;;;;;;;;;5019272;28;20517;-58
2022/04/30 09:21:14;;;;;;;0.13;0.13;;;;;;;;;;5024622;28;20025;-58
2022/04/30 09:23:40;;;;;;;0.65;0.30;;;;;;;;;;5011557;28;20074;-58
2022/04/30 09:26:06;;;;;;;3.35;3.15;;;;;;;;;;5007541;28;20030;-58
2022/04/30 09:28:33;;;;;;;2.72;2.47;;;;;;;;;;5021355;28;20108;-56
2022/04/30 09:31:11;;;;;;;0.60;0.60;;;;;;;;;;5020036;28;20076;-58
2022/04/30 09:33:38;;;;;;;2.20;2.10;;;;;;;;;;5016231;28;20463;-58
2022/04/30 09:38:51;;;;;;;0.35;0.28;;;;;;;;;;5018274;28;20056;-57
2022/04/30 09:41:20;;;;;;;1.50;1.45;;;;;;;;;;5019167;28;20037;-58
2022/04/30 09:43:45;;;;;;;1.58;1.52;;;;;;;;;;4994049;28;20101;-57
2022/04/30 09:46:11;;;;;;;1.00;1.00;;;;;;;;;;5016501;28;20164;-60
2022/04/30 09:54:06;;;;;;;3.13;2.90;;;;;;;;;;5015341;28;20394;-59
2022/04/30 09:56:44;;;;;;;0.00;0.00;;;;;;;;;;5012424;28;20022;-59
2022/04/30 09:59:11;;;;;;;2.15;1.85;;;;;;;;;;5011292;28;20538;-59
2022/04/30 10:01:44;;;;;;;2.53;1.80;;;;;;;;;;5018190;28;20026;-58
2022/04/30 10:04:11;;;;;;;0.55;0.52;;;;;;;;;;5010016;28;20431;-59
2022/04/30 10:06:55;;;;;;;1.33;1.00;;;;;;;;;;5010947;28;20022;-57
2022/04/30 10:09:21;;;;;;;3.42;3.13;;;;;;;;;;5018529;28;20116;-59
2022/04/30 10:11:47;;;;;;;1.48;1.42;;;;;;;;;;5015802;28;20026;-55
2022/04/30 10:14:31;;;;;;;0.28;0.28;;;;;;;;;;5014922;28;20375;-58
2022/04/30 10:17:12;;;;;;;3.15;1.85;;;;;;;;;;5009234;28;20108;-58
2022/04/30 10:19:41;;;;;;;1.10;0.80;;;;;;;;;;5013745;28;20462;-57
2022/04/30 10:22:11;;;;;;;1.40;1.38;;;;;;;;;;5017632;28;20026;-58
2022/04/30 10:24:40;;;;;;;2.05;1.45;;;;;;;;;;5021860;28;20068;-58
2022/04/30 10:27:05;;;;;;;1.48;1.38;;;;;;;;;;5013158;28;20509;-58
2022/04/30 10:29:30;;;;;;;0.90;0.90;;;;;;;;;;5014171;28;20026;-58
2022/04/30 10:31:56;;;;;;;1.10;0.90;;;;;;;;;;5004523;28;20068;-59
2022/04/30 10:34:28;;;;;;;1.90;1.35;;;;;;;;;;5009479;28;20038;-59
2022/04/30 10:36:54;;;;;;;2.45;2.30;;;;;;;;;;5017209;28;20055;-58
2022/04/30 10:39:19;;;;;;;0.20;0.20;;;;;;;;;;5019372;28;20200;-59
2022/04/30 10:41:45;;;;;;;1.23;0.52;;;;;;;;;;5014981;28;20466;-59
2022/04/30 10:44:12;;;;;;;0.55;0.55;;;;;;;;;;5009895;28;20018;-58
2022/04/30 10:46:38;;;;;;;0.00;0.00;;;;;;;;;;5025925;28;20042;-60
2022/04/30 10:49:05;;;;;;;1.02;0.65;;;;;;;;;;5029355;28;20026;-58
2022/04/30 10:51:33;;;;;;;0.32;0.32;;;;;;;;;;5027869;28;20033;-57
2022/04/30 10:53:59;;;;;;;1.13;1.02;;;;;;;;;;5028231;28;20022;-56
2022/04/30 10:56:27;;;;;;;0.63;0.55;;;;;;;;;;5027457;28;20101;-56
2022/04/30 10:58:52;;;;;;;0.80;0.80;;;;;;;;;;5027942;28;20461;-56
2022/04/30 11:01:18;;;;;;;2.45;2.08;;;;;;;;;;5026671;28;20100;-59
2022/04/30 11:03:44;;;;;;;0.22;0.22;;;;;;;;;;5026458;28;20466;-58
2022/04/30 11:06:11;;;;;;;1.60;1.50;;;;;;;;;;5028702;28;20032;-59
2022/04/30 11:08:36;;;;;;;0.38;0.38;;;;;;;;;;5026994;28;20029;-59
2022/04/30 11:11:01;;;;;;;0.00;0.00;;;;;;;;;;5026680;28;20111;-57
2022/04/30 11:13:26;;;;;;;2.47;1.38;;;;;;;;;;5028505;28;20029;-59
2022/04/30 11:15:52;;;;;;;0.85;0.55;;;;;;;;;;5025547;28;20040;-57
2022/04/30 11:18:20;;;;;;;0.00;0.00;;;;;;;;;;5025793;28;20048;-57
2022/04/30 11:20:45;;;;;;;0.25;0.25;;;;;;;;;;5025152;28;20057;-58
2022/04/30 11:23:20;;;;;;;2.05;1.83;;;;;;;;;;5026439;28;20753;-58
2022/04/30 11:25:45;;;;;;;0.28;0.28;;;;;;;;;;5027886;28;20021;-57
2022/04/30 11:28:10;;;;;;;0.98;0.98;;;;;;;;;;5028812;28;20048;-58
2022/04/30 11:30:40;;;;;;;2.05;1.95;;;;;;;;;;5029614;28;20030;-58
2022/04/30 11:33:06;;;;;;;0.10;0.10;;;;;;;;;;5026944;28;20100;-56
2022/04/30 11:35:31;;;;;;;0.30;0.30;;;;;;;;;;5028001;28;20108;-57
2022/04/30 11:37:56;;;;;;;4.93;2.25;;;;;;;;;;5027683;28;20029;-57
2022/04/30 11:40:22;;;;;;;0.85;0.55;;;;;;;;;;5024306;28;20038;-57
2022/04/30 11:42:57;;;;;;;0.10;0.10;;;;;;;;;;5026931;28;20040;-57
2022/04/30 11:45:24;;;;;;;1.50;0.22;;;;;;;;;;5008778;28;20562;-58
2022/04/30 11:47:49;;;;;;;1.48;1.40;;;;;;;;;;5026525;28;20017;-58
2022/04/30 11:50:15;;;;;;;1.90;1.80;;;;;;;;;;5028318;28;20485;-59
2022/04/30 11:52:40;;;;;;;0.30;0.30;;;;;;;;;;5027739;28;20030;-58
2022/04/30 11:55:06;;;;;;;0.25;0.25;;;;;;;;;;5028248;28;20018;-57
2022/04/30 11:57:32;;;;;;;1.63;1.63;;;;;;;;;;5026828;28;20467;-57
2022/04/30 11:59:58;;;;;;;1.90;1.80;;;;;;;;;;5027462;28;20029;-57
2022/04/30 12:02:23;;;;;;;1.15;0.43;;;;;;;;;;5028703;28;20033;-59
2022/04/30 12:04:50;;;;;;;1.65;1.65;;;;;;;;;;5027056;28;20017;-57
2022/04/30 12:07:15;;;;;;;2.22;2.03;;;;;;;;;;5028350;28;20056;-57
2022/04/30 12:09:45;;;;;;;0.30;0.30;;;;;;;;;;5026752;28;21026;-59
2022/04/30 12:12:22;;;;;;;0.70;0.70;;;;;;;;;;5013260;28;20057;-57
2022/04/30 12:14:54;;;;;;;2.45;2.30;;;;;;;;;;5031980;28;20057;-57
2022/04/30 12:17:32;;;;;;;0.55;0.55;;;;;;;;;;5031459;28;20743;-57
2022/04/30 12:25:32;;;;;;;1.77;1.67;;;;;;;;;;5028107;28;20382;-58
2022/04/30 12:27:59;;;;;;;0.00;0.00;;;;;;;;;;5030383;28;20021;-57
2022/04/30 12:30:25;;;;;;;1.00;1.00;;;;;;;;;;5030827;28;20021;-57
2022/04/30 12:33:01;;;;;;;0.65;0.50;;;;;;;;;;5032213;28;20040;-55
2022/04/30 12:35:38;;;;;;;0.85;0.85;;;;;;;;;;5032173;28;20067;-56
2022/04/30 12:38:07;;;;;;;1.80;1.65;;;;;;;;;;5031126;28;20029;-57
2022/04/30 12:40:33;;;;;;;;;;;;;;;;;;5032616;28;20017;-58
2022/04/30 12:42:58;;;;;;;0.30;0.28;;;;;;;;;;5031156;28;19919;-61
2022/04/30 12:45:24;;;;;;;0.00;0.00;;;;;;;;;;5029966;28;20104;-60
2022/04/30 12:47:50;;;;;;;0.50;0.50;;;;;;;;;;5029799;28;20383;-60
2022/04/30 12:50:15;;;;;;;0.00;0.00;;;;;;;;;;5030505;28;20041;-58
2022/04/30 12:52:40;;;;;;;3.13;1.90;;;;;;;;;;5032761;28;20021;-60
2022/04/30 12:55:06;;;;;;;2.45;1.75;;;;;;;;;;5030852;28;20067;-59
2022/04/30 12:57:31;;;;;;;0.50;0.50;;;;;;;;;;5032091;28;20065;-59
2022/04/30 12:59:56;;;;;;;0.52;0.52;;;;;;;;;;5030782;28;20033;-60
2022/04/30 13:02:24;;;;;;;2.65;2.03;;;;;;;;;;5031076;28;20049;-60
2022/04/30 13:04:51;;;;;;;2.63;2.08;;;;;;;;;;5030380;28;20027;-59
2022/04/30 13:07:16;;;;;;;1.45;1.15;;;;;;;;;;5032333;28;20013;-60
2022/04/30 13:15:09;;;;;;;4.68;0.88;;;;;;;;;;5030665;28;20516;-60
2022/04/30 13:17:35;;;;;;;3.35;2.03;;;;;;;;;;5030487;28;20033;-60
2022/04/30 13:20:00;;;;;;;2.92;2.72;;;;;;;;;;5030647;28;20520;-60
2022/04/30 13:22:25;;;;;;;1.38;0.65;;;;;;;;;;5030354;28;20017;-60
2022/04/30 13:24:51;;;;;;;1.65;0.55;;;;;;;;;;5031765;28;20084;-60
2022/04/30 13:27:16;;;;;;;0.63;0.63;;;;;;;;;;5031777;28;20022;-59
2022/04/30 13:29:41;;;;;;;2.40;2.25;;;;;;;;;;5031933;28;20029;-59
2022/04/30 13:32:07;;;;;;;1.10;1.10;;;;;;;;;;5030910;28;20040;-60
2022/04/30 13:34:32;;;;;;;3.47;2.22;;;;;;;;;;5030421;28;20474;-60
2022/04/30 13:36:57;;;;;;;1.98;1.88;;;;;;;;;;5029977;28;20021;-59
2022/04/30 13:39:23;;;;;;;2.75;1.30;;;;;;;;;;5030854;28;20414;-59
2022/04/30 13:41:48;;;;;;;2.53;2.00;;;;;;;;;;5028879;28;20029;-60
2022/04/30 13:44:13;;;;;;;2.83;2.17;;;;;;;;;;5029323;28;20097;-60
2022/04/30 13:46:39;;;;;;;2.63;2.28;;;;;;;;;;5029584;28;20095;-60
2022/04/30 13:49:04;;;;;;;1.15;1.15;;;;;;;;;;5030003;28;20021;-59
2022/04/30 13:51:31;;;;;;;3.03;2.17;;;;;;;;;;5031401;28;20478;-59
2022/04/30 13:53:57;;;;;;;2.67;2.42;;;;;;;;;;5031381;28;20414;-59
2022/04/30 13:56:22;;;;;;;0.63;0.63;;;;;;;;;;5032061;28;20040;-60
2022/04/30 13:58:47;;;;;;;1.20;1.17;;;;;;;;;;5031130;28;20022;-60
2022/04/30 14:01:12;;;;;;;7.00;2.58;;;;;;;;;;5029138;28;20355;-61
2022/04/30 14:03:38;;;;;;;0.80;0.80;;;;;;;;;;5031839;28;20025;-61
2022/04/30 14:06:03;;;;;;;1.00;0.80;;;;;;;;;;5030111;28;20438;-61
2022/04/30 14:08:28;;;;;;;3.00;2.80;;;;;;;;;;5029792;28;20024;-60
2022/04/30 14:10:54;;;;;;;0.00;0.00;;;;;;;;;;5030690;28;20029;-61
2022/04/30 14:16:03;;;;;;;1.42;1.05;;;;;;;;;;5030599;28;20512;-60
2022/04/30 14:18:29;;;;;;;4.80;2.13;;;;;;;;;;5032327;28;20025;-60
2022/04/30 14:20:54;;;;;;;1.17;0.63;;;;;;;;;;5030919;28;20398;-60
2022/04/30 14:23:23;;;;;;;4.13;3.83;;;;;;;;;;5026376;28;20025;-60
2022/04/30 14:25:49;;;;;;;0.30;0.30;;;;;;;;;;5028192;28;20355;-61
2022/04/30 14:28:15;;;;;;;1.23;1.13;;;;;;;;;;5028838;28;20047;-60
2022/04/30 14:30:44;;;;;;;1.40;1.30;;;;;;;;;;5029749;28;20025;-59
2022/04/30 14:33:10;;;;;;;0.68;0.68;;;;;;;;;;5026702;28;20148;-59
2022/04/30 14:35:38;;;;;;;0.90;0.85;;;;;;;;;;5029533;28;20112;-60
2022/04/30 14:38:08;;;;;;;5.07;2.92;;;;;;;;;;5030788;28;20107;-60
2022/04/30 14:40:33;;;;;;;2.17;2.05;;;;;;;;;;5028095;28;20453;-59
2022/04/30 14:42:59;;;;;;;1.27;1.17;;;;;;;;;;5028503;28;20030;-60
2022/04/30 14:45:24;;;;;;;0.25;0.25;;;;;;;;;;5029794;28;20064;-60
2022/04/30 14:47:49;;;;;;;0.10;0.10;;;;;;;;;;5027680;28;20494;-60
2022/04/30 14:50:14;;;;;;;1.45;1.45;;;;;;;;;;5029322;28;20500;-58
2022/04/30 14:52:40;;;;;;;1.75;1.55;;;;;;;;;;5028464;28;20086;-60
2022/04/30 14:55:05;;;;;;;2.67;2.47;;;;;;;;;;5027119;28;20116;-60
2022/04/30 14:57:30;;;;;;;0.25;0.25;;;;;;;;;;5029070;28;20045;-59
2022/04/30 14:59:56;;;;;;;1.80;1.80;;;;;;;;;;5029036;28;20156;-60
2022/04/30 15:02:21;;;;;;;1.38;1.27;;;;;;;;;;5029007;28;20022;-60
2022/04/30 15:04:46;;;;;;;1.90;1.23;;;;;;;;;;5029160;28;20025;-60
2022/04/30 15:07:13;;;;;;;5.47;2.22;;;;;;;;;;5029838;28;20017;-60
2022/04/30 15:09:40;;;;;;;3.40;1.17;;;;;;;;;;5029632;28;20021;-61
2022/04/30 15:12:05;;;;;;;2.10;1.92;;;;;;;;;;5027277;28;20025;-58
2022/04/30 15:14:30;;;;;;;0.00;0.00;;;;;;;;;;5030920;28;20052;-57
2022/04/30 15:16:56;;;;;;;0.98;0.65;;;;;;;;;;5027983;28;20068;-58
2022/04/30 15:19:21;;;;;;;1.88;1.33;;;;;;;;;;5029070;28;20098;-58
2022/04/30 15:21:46;;;;;;;5.72;2.33;;;;;;;;;;5028293;28;20024;-56